Sarasota, FL

10:51 PM EST on March 02, 2015 (GMT -0500)
Aqualane Estates | Change Station
CLOSE
Current Station
Personal Weather Station
Location: Sarasota, FL
Elevation: 23 ft
Nearby Weather Stations

Elev 23 ft 27.26 °N, 82.53 °W | Updated 4 seconds ago

Clear
Clear
67.8 °F
Feels Like 67.8 °F
N
0.0
Wind Variable Wind from NNE
Gusts 0.0 mph

Today
High -- | Low -- °F
--% Chance of Precip.
Yesterday
High -- | Low -- °F
Precip. -- in
6:53 AM 6:31 PM
Waxing Gibbous, 94% visible
Pressure 30.22 in
Visibility 10.0 miles
Clouds Clear
Dew Point 65 °F
Humidity 92%
Rainfall 0.00 in
Snow Depth Not available.
UV 0 out of 12
Pollen 9.10 out of 12
Air Quality Not available.
Flu Activity Not available.
METAR KSRQ 030253Z 02003KT 10SM CLR 21/18 A3022 RMK AO2 SLP231 T02060183 51008

More Conditions Fewer Conditions

Pressure 30.22 in
Visibility 10.0 miles
Clouds Clear
Dew Point 65 °F
Humidity 92%
Rainfall 0.00 in
Snow Depth Not available.
UV 0 out of 12
Pollen 9.10 out of 12
Air Quality Not available.
Flu Activity Not available.
METAR KSRQ 030253Z 02003KT 10SM CLR 21/18 A3022 RMK AO2 SLP231 T02060183 51008

More Conditions Fewer Conditions

10-Day Weather Forecast

Almanac

Astronomy

Mar. 02, 2015 Rise Set
Actual Time
Civil Twilight
Nautical Twilight
Astronomical Twilight
Moon
Length of Visible Light
Length of Day
Tomorrow will be .
, % of the Moon is Illuminated

Today's Extremes

State Highs State Lows

Community

WunderPhotos

Upload Photos

1,802,060 photos uploaded!

WunderBlogs® & News

Nearby

Air Quality

  Air Quality AQ Index Pollutant
Not available.

Snow Depth

Station Depth Elevation

Earthquake Activity

City Distance Mag. Time & Date
Minimum magnitude displayed is 2.5.

Coastal Water Temperatures

Place Temperature

Nearby Weather Stations